Almont MI Speed Test Log

Averages  Max Speed    
1 to 25 of 5051** for City Almont MI
Time
Speed Provider Size    User ConnectID  TestID   
10/26/20 2:00:35 am 1.13 Mbps 141 kB/sFrontier 1.4 MB461839858024 L4xpIwZze 
10/26/20 1:59:58 am 931 kbps 116 kB/sFrontier 1.4 MB461839858024 KvF2tVz_I 
10/26/20 1:59:40 am 1.78 Mbps 223 kB/sFrontier 1.4 MB461839858024 fnzTNBZEs 
10/25/20 5:11:07 pm 44 kbps 6 kB/sSpectrum 96 kB43343405005 aAbryGR_D 
10/25/20 4:47:53 am 13.33 Mbps 1.67 MB/sFrontier 14 MB461839858024 YB11tJ~Qn 
10/25/20 4:47:36 am 8.73 Mbps 1.09 MB/sFrontier 14 MB461839858024 mfTKtf379 
7/10/20 6:28:12 pm 13.31 Mbps 1.66 MB/sFrontier 21.6 MB4596606950239 xGgmF8l1R 
5/6/20 1:58:37 am 8.69 Mbps 1.09 MB/sFrontier 7.5 MB461839397210 Id~7tbtUx 
5/6/20 1:57:43 am 36 Mbps 4.5 MB/sFrontier 21.5 MB461839397210 lGQF76k6_ 
5/6/20 1:55:00 am 8.67 Mbps 1.08 MB/sFrontier 6.2 MB461839397210 wq0xhSG5g 
5/6/20 1:54:50 am 26.32 Mbps 3.29 MB/sFrontier 21.9 MB461839397210 LFi4ubEXT 
5/6/20 1:54:16 am 13.53 Mbps 1.69 MB/sFrontier 7.7 MB461839397210 Z1GQmur_2 
5/6/20 1:52:30 am 3.83 Mbps 478 kB/sFrontier 1.8 MB461839397210 o9XaEE9xW 
5/6/20 1:52:02 am 28.97 Mbps 3.62 MB/sFrontier 20.8 MB461839397210 PzvwRoDEd 
5/6/20 1:51:12 am 48.11 Mbps 6.01 MB/sFrontier 20.8 MB461839397210 V9Vwmilk6 
4/21/20 7:45:20 am 827 kbps 103 kB/sFrontier 1008 kB4594854303415 VKywT8F9E 
4/21/20 7:45:06 am 16.81 Mbps 2.1 MB/sFrontier 20.7 MB4594854303415 _RyelUTb0 
4/21/20 6:45:06 am 845 kbps 106 kB/sFrontier 1000 kB4594854303415 cGE2LOB33 
4/21/20 6:44:53 am 18.26 Mbps 2.28 MB/sFrontier 21.3 MB4594854303415 C~js92iI1 
4/21/20 5:44:52 am 841 kbps 105 kB/sFrontier 944 kB4594854303415 -E3855Mn~ 
4/21/20 5:44:39 am 13.69 Mbps 1.71 MB/sFrontier 21.1 MB4594854303415 A5l-o7S3j 
4/21/20 4:44:35 am 957 kbps 120 kB/sFrontier 1 MB4594854303415 P~07eA-HR 
4/21/20 4:44:22 am 13.7 Mbps 1.71 MB/sFrontier 25.5 MB4594854303415 DZYbhIL0u 
4/21/20 3:44:15 am 870 kbps 109 kB/sFrontier 920 kB4594854303415 AvkPCtbO4 
4/21/20 3:44:02 am 10.05 Mbps 1.26 MB/sFrontier 14.1 MB4594854303415 4RbEgxVVw 
  
** Partial Results: The most recent results have been displayed. Results over 50 Mbps are highlighted.
Graphed results calculation
Displaying Internet Speed Test results for City Almont MI

Minimum

Min 0.93 Mbps : 0.04 Mbps

Average [show Median]

Average 16.54 Mbps : 2.84 Mbps

Maximum

Max 48.11 Mbps : 8.69 Mbps

Minimum

Minimum: 0.93 Mbps : 0.04 Mbps

Average

Average: 16.54 Mbps : 2.84 Mbps [show Median]

Maximum

Maximum: 48.11 Mbps : 8.69 Mbps